Time;durP1;ratioP1;P1;durP2;ratioP2;P2;SDS_P1;SDS_P2;PMS_P1;PMS_P2;Temp;Humidity;BMP_temperature;BMP_pressure;BME280_temperature;BME280_humidity;BME280_pressure;Samples;Min_cycle;Max_cycle;Signal;HPM_P1;HPM_P2
2022/08/18 00:00:50;;;;;;;47.80;44.05;;;;;;;20.27;100.00;100498.41;5016181;28;20054;-82
2022/08/18 00:03:19;;;;;;;59.47;55.10;;;;;;;20.44;100.00;100499.97;5031299;28;20057;-82
2022/08/18 00:05:52;;;;;;;58.90;54.45;;;;;;;19.50;100.00;100502.31;5031431;28;20131;-83
2022/08/18 00:08:19;;;;;;;51.42;47.42;;;;;;;20.17;100.00;100503.84;5029400;28;20049;-81
2022/08/18 00:10:47;;;;;;;63.45;58.88;;;;;;;20.24;100.00;100508.94;5021502;28;20057;-82
2022/08/18 00:13:13;;;;;;;63.83;59.17;;;;;;;20.22;100.00;100509.22;5032710;28;20490;-82
2022/08/18 00:15:42;;;;;;;72.07;67.18;;;;;;;19.97;100.00;100498.50;5032406;28;20045;-84
2022/08/18 00:18:10;;;;;;;68.00;62.53;;;;;;;20.03;100.00;100500.09;5027622;28;20406;-83
2022/08/18 00:20:41;;;;;;;54.50;50.22;;;;;;;19.95;100.00;100506.88;5017801;28;20057;-81
2022/08/18 00:23:08;;;;;;;45.25;41.60;;;;;;;19.78;100.00;100509.84;5023448;28;20053;-81
2022/08/18 00:25:41;;;;;;;49.10;45.15;;;;;;;19.77;100.00;100510.94;5029184;28;20053;-81
2022/08/18 00:28:10;;;;;;;46.35;42.60;;;;;;;19.85;100.00;100517.69;5014172;28;20112;-81
2022/08/18 00:30:37;;;;;;;46.10;42.35;;;;;;;19.55;100.00;100518.50;5017132;28;20061;-84
2022/08/18 00:33:06;;;;;;;51.03;47.30;;;;;;;19.98;100.00;100521.69;5028191;28;20061;-84
2022/08/18 00:35:37;;;;;;;50.15;46.10;;;;;;;19.81;100.00;100519.28;5018277;28;20058;-81
2022/08/18 00:38:08;;;;;;;46.28;42.67;;;;;;;19.89;100.00;100522.25;5026583;28;20045;-82
2022/08/18 00:40:40;;;;;;;48.47;44.70;;;;;;;19.97;100.00;100526.28;5022814;28;20466;-82
2022/08/18 00:43:14;;;;;;;46.55;42.95;;;;;;;20.02;100.00;100533.53;5019729;28;20296;-83
2022/08/18 00:45:43;;;;;;;50.40;46.47;;;;;;;19.71;100.00;100533.59;5030941;28;20130;-81
2022/08/18 00:48:12;;;;;;;47.00;43.50;;;;;;;19.78;100.00;100527.91;5029639;28;20050;-80
2022/08/18 00:50:44;;;;;;;48.50;44.33;;;;;;;19.80;100.00;100529.25;5014458;28;20064;-83
2022/08/18 00:53:22;;;;;;;49.50;45.40;;;;;;;19.90;100.00;100526.53;5014614;28;20054;-85
2022/08/18 00:55:51;;;;;;;42.78;39.45;;;;;;;19.86;100.00;100524.69;5022866;28;20056;-80
2022/08/18 00:58:29;;;;;;;44.35;40.50;;;;;;;19.87;100.00;100524.38;5032514;28;20053;-82
2022/08/18 01:00:56;;;;;;;46.78;43.20;;;;;;;19.33;100.00;100530.31;5014460;28;20475;-80
2022/08/18 01:03:25;;;;;;;45.38;41.78;;;;;;;19.61;100.00;100531.69;5029375;28;20057;-83
2022/08/18 01:05:59;;;;;;;47.67;44.05;;;;;;;19.41;100.00;100545.13;5022398;28;20050;-81
2022/08/18 01:08:29;;;;;;;44.33;40.67;;;;;;;19.10;100.00;100538.94;5014476;28;20052;-80
2022/08/18 01:11:01;;;;;;;49.35;45.30;;;;;;;19.14;100.00;100540.81;5030837;28;20049;-84
2022/08/18 01:13:31;;;;;;;46.42;42.72;;;;;;;19.04;100.00;100537.31;5029178;28;20095;-84
2022/08/18 01:21:49;;;;;;;47.90;43.28;;;;;;;19.22;100.00;100528.72;5032746;28;20049;-81
2022/08/18 01:21:51;;;;;;;46.95;42.97;;;;;;;19.30;100.00;100540.81;5013502;28;20488;-81
2022/08/18 01:25:58;;;;;;;48.28;43.63;;;;;;;18.82;100.00;100541.03;5019580;28;20050;-81
2022/08/18 01:27:16;;;;;;;50.45;46.22;;;;;;;19.25;100.00;100544.31;5033272;28;20520;-81
2022/08/18 01:29:45;;;;;;;46.00;42.33;;;;;;;18.76;100.00;100539.38;5022485;28;20065;-81
2022/08/18 01:32:15;;;;;;;52.60;48.70;;;;;;;18.85;100.00;100540.50;5022345;28;20060;-81
2022/08/18 01:34:43;;;;;;;54.58;49.78;;;;;;;19.26;100.00;100537.84;5028030;28;20104;-81
2022/08/18 01:37:11;;;;;;;54.40;50.10;;;;;;;18.39;100.00;100534.88;5035424;28;20446;-82
2022/08/18 01:39:40;;;;;;;51.92;47.70;;;;;;;18.59;100.00;100541.44;5034536;28;20115;-80
2022/08/18 01:42:07;;;;;;;53.60;49.60;;;;;;;18.84;100.00;100544.22;5029058;28;20483;-82
2022/08/18 01:44:34;;;;;;;48.13;44.08;;;;;;;19.06;100.00;100535.94;5020184;28;20430;-80
2022/08/18 01:47:00;;;;;;;51.13;47.13;;;;;;;18.93;100.00;100539.16;5022778;28;20056;-83
2022/08/18 01:49:28;;;;;;;46.25;42.55;;;;;;;18.78;100.00;100542.59;5028096;28;20045;-80
2022/08/18 01:51:56;;;;;;;50.13;46.00;;;;;;;19.23;100.00;100535.69;5030919;28;20076;-83
2022/08/18 01:54:23;;;;;;;48.05;44.30;;;;;;;19.11;100.00;100544.03;5031387;28;20049;-81
2022/08/18 01:56:52;;;;;;;46.60;42.88;;;;;;;18.94;100.00;100541.59;5029817;28;20057;-82
2022/08/18 01:59:19;;;;;;;46.30;42.60;;;;;;;18.89;100.00;100538.88;5033374;28;20049;-81
2022/08/18 02:01:47;;;;;;;48.30;44.55;;;;;;;19.21;100.00;100541.38;5131830;22;20049;-82
2022/08/18 02:04:16;;;;;;;48.20;44.35;;;;;;;18.89;100.00;100546.94;5021525;28;20053;-85
2022/08/18 02:06:43;;;;;;;51.72;47.72;;;;;;;19.15;100.00;100545.13;5025374;28;20049;-84
2022/08/18 02:09:10;;;;;;;55.22;50.40;;;;;;;19.26;100.00;100554.00;5022918;28;20053;-81
2022/08/18 02:11:37;;;;;;;59.88;55.10;;;;;;;19.27;100.00;100546.75;5019756;28;20046;-85
2022/08/18 02:14:05;;;;;;;60.22;55.78;;;;;;;19.26;100.00;100550.50;5030591;28;20548;-80
2022/08/18 02:16:33;;;;;;;59.78;55.15;;;;;;;19.20;100.00;100550.50;5030544;28;20481;-84
2022/08/18 02:19:00;;;;;;;57.05;52.65;;;;;;;19.18;100.00;100552.66;5032868;28;20100;-80
2022/08/18 02:21:30;;;;;;;65.45;59.75;;;;;;;18.68;100.00;100562.19;5026886;28;20049;-84
2022/08/18 02:23:57;;;;;;;60.70;54.75;;;;;;;18.99;100.00;100554.22;5027734;28;20053;-81
2022/08/18 02:26:24;;;;;;;58.80;53.03;;;;;;;18.88;100.00;100563.34;5029772;28;20049;-80
2022/08/18 02:28:51;;;;;;;57.70;52.50;;;;;;;18.97;100.00;100561.75;5031655;28;20053;-81
2022/08/18 02:31:27;;;;;;;62.45;57.28;;;;;;;19.06;100.00;100564.75;5021438;28;20053;-85
2022/08/18 02:33:56;;;;;;;57.60;52.67;;;;;;;19.14;100.00;100566.91;5028724;28;20132;-81
2022/08/18 02:36:23;;;;;;;53.65;49.15;;;;;;;18.84;100.00;100579.22;5027936;28;20104;-81
2022/08/18 02:38:51;;;;;;;47.67;43.50;;;;;;;18.95;100.00;100570.09;5031186;28;20124;-84
2022/08/18 02:41:20;;;;;;;48.10;43.97;;;;;;;18.79;100.00;100578.38;5023897;28;20064;-82
2022/08/18 02:43:48;;;;;;;50.65;45.75;;;;;;;18.16;100.00;100576.44;5028334;28;20041;-84
2022/08/18 02:46:16;;;;;;;53.78;49.35;;;;;;;18.48;100.00;100576.34;5022111;28;20050;-81
2022/08/18 02:48:45;;;;;;;57.90;53.00;;;;;;;18.86;100.00;100581.66;5017961;28;20053;-81
2022/08/18 02:51:23;;;;;;;47.95;43.78;;;;;;;19.28;100.00;100589.56;5020297;28;20054;-82
2022/08/18 02:53:50;;;;;;;52.22;48.08;;;;;;;19.01;100.00;100581.69;5018285;28;20489;-80
2022/08/18 02:56:26;;;;;;;48.30;44.20;;;;;;;18.49;100.00;100594.13;5026143;28;20069;-84
2022/08/18 02:58:55;;;;;;;61.25;56.30;;;;;;;18.04;100.00;100587.38;5030029;28;20064;-81
2022/08/18 03:01:24;;;;;;;54.88;50.08;;;;;;;18.70;100.00;100589.63;5028475;28;20053;-81
2022/08/18 03:03:54;;;;;;;64.35;59.15;;;;;;;18.95;100.00;100588.94;5022334;28;20064;-86
2022/08/18 03:06:22;;;;;;;65.47;60.22;;;;;;;18.83;100.00;100592.94;5027375;28;20084;-84
2022/08/18 03:08:51;;;;;;;54.65;50.28;;;;;;;18.77;100.00;100603.69;5031268;28;20052;-84
2022/08/18 03:11:19;;;;;;;64.43;59.20;;;;;;;18.98;100.00;100603.75;5034323;28;20390;-82
2022/08/18 03:13:47;;;;;;;52.13;48.22;;;;;;;18.72;100.00;100609.00;5036282;28;20499;-85
2022/08/18 03:16:15;;;;;;;54.53;50.25;;;;;;;18.65;100.00;100607.63;5028627;28;20045;-81
2022/08/18 03:18:45;;;;;;;59.63;55.03;;;;;;;18.51;100.00;100605.41;5033696;28;20053;-84
2022/08/18 03:21:17;;;;;;;66.55;61.72;;;;;;;18.60;100.00;100611.09;5026814;28;20060;-81
2022/08/18 03:23:44;;;;;;;64.87;59.77;;;;;;;18.81;100.00;100614.72;5016356;28;20057;-81
2022/08/18 03:26:14;;;;;;;62.90;57.53;;;;;;;18.88;100.00;100615.31;5030116;28;20053;-81
2022/08/18 03:28:43;;;;;;;68.32;62.25;;;;;;;18.75;100.00;100610.38;5034688;28;20049;-84
2022/08/18 03:31:13;;;;;;;65.40;59.70;;;;;;;17.88;100.00;100609.03;5019097;28;20053;-82
2022/08/18 03:33:41;;;;;;;65.55;59.47;;;;;;;17.70;100.00;100611.03;5030022;28;20477;-82
2022/08/18 03:36:10;;;;;;;69.40;62.90;;;;;;;18.34;100.00;100625.50;5018089;28;20422;-83
2022/08/18 03:38:39;;;;;;;63.38;57.15;;;;;;;18.28;100.00;100622.75;5033584;28;20065;-82
2022/08/18 03:41:07;;;;;;;65.70;58.83;;;;;;;18.04;100.00;100630.38;5023723;28;20449;-82
2022/08/18 03:43:35;;;;;;;60.42;54.83;;;;;;;18.75;100.00;100623.84;5015828;28;20414;-82
2022/08/18 03:46:03;;;;;;;69.40;62.53;;;;;;;18.95;100.00;100623.13;5026853;28;20505;-84
2022/08/18 03:48:32;;;;;;;38.42;35.22;;;;;;;18.78;100.00;100620.63;5022712;28;20054;-82
2022/08/18 03:51:03;;;;;;;36.47;33.58;;;;;;;18.99;100.00;100624.19;5027261;28;20562;-83
2022/08/18 03:53:31;;;;;;;36.70;33.83;;;;;;;18.40;100.00;100632.53;5024823;28;20049;-80
2022/08/18 03:55:59;;;;;;;39.03;35.83;;;;;;;18.67;100.00;100627.00;5033023;28;20115;-81
2022/08/18 03:58:27;;;;;;;40.42;37.03;;;;;;;19.07;100.00;100629.09;5020319;28;20052;-81
2022/08/18 04:00:54;;;;;;;43.10;39.80;;;;;;;19.15;100.00;100630.44;5023809;28;20400;-82
2022/08/18 04:03:22;;;;;;;36.85;34.05;;;;;;;18.76;100.00;100631.66;5024144;28;20056;-84
2022/08/18 04:05:49;;;;;;;41.45;38.25;;;;;;;19.28;100.00;100637.22;5026107;28;20042;-85
2022/08/18 04:08:16;;;;;;;42.80;39.35;;;;;;;19.36;100.00;100632.09;5018684;28;20045;-82
2022/08/18 04:10:45;;;;;;;41.38;37.92;;;;;;;19.55;100.00;100628.94;5024585;28;20053;-84
2022/08/18 04:13:13;;;;;;;42.22;39.25;;;;;;;19.42;100.00;100633.72;5015020;28;20046;-81
2022/08/18 04:15:40;;;;;;;41.45;38.25;;;;;;;19.22;100.00;100639.91;5015846;28;20042;-82
2022/08/18 04:18:12;;;;;;;44.08;40.60;;;;;;;19.25;100.00;100646.63;5032892;28;20072;-85
2022/08/18 04:20:43;;;;;;;43.55;40.38;;;;;;;19.44;100.00;100649.63;5025750;28;20049;-83
2022/08/18 04:23:15;;;;;;;44.33;41.28;;;;;;;19.51;100.00;100646.69;5026614;28;20843;-84
2022/08/18 04:25:42;;;;;;;39.45;36.80;;;;;;;19.42;100.00;100647.19;5026921;28;20054;-82
2022/08/18 04:28:13;;;;;;;41.55;38.55;;;;;;;19.64;100.00;100665.03;5017590;28;20418;-84
2022/08/18 04:30:40;;;;;;;42.42;39.03;;;;;;;19.76;100.00;100660.22;5030358;28;20046;-82
2022/08/18 04:33:08;;;;;;;40.58;37.75;;;;;;;19.78;100.00;100658.06;5030661;28;20426;-81
2022/08/18 04:35:35;;;;;;;39.20;36.55;;;;;;;19.82;100.00;100664.53;5033420;28;20045;-81
2022/08/18 04:38:02;;;;;;;40.40;37.50;;;;;;;20.12;100.00;100661.03;5021556;28;20061;-81
2022/08/18 04:40:32;;;;;;;43.13;40.05;;;;;;;20.06;100.00;100667.50;5018020;28;20049;-82
2022/08/18 04:43:01;;;;;;;43.53;40.42;;;;;;;20.33;100.00;100663.69;5026892;28;20065;-83
2022/08/18 04:45:30;;;;;;;43.60;40.60;;;;;;;20.62;100.00;100655.03;5019795;28;20053;-81
2022/08/18 04:47:58;;;;;;;40.83;37.58;;;;;;;20.73;100.00;100651.25;5022683;28;20056;-84
2022/08/18 04:50:26;;;;;;;38.35;35.67;;;;;;;20.78;100.00;100648.50;5019406;28;20050;-82
2022/08/18 04:55:47;;;;;;;40.33;37.35;;;;;;;20.97;100.00;100635.22;5022610;28;20049;-85
2022/08/18 04:58:15;;;;;;;36.40;33.50;;;;;;;20.82;100.00;100649.59;5030789;28;20060;-85
2022/08/18 05:00:44;;;;;;;38.45;35.63;;;;;;;20.81;100.00;100650.66;5031136;28;20041;-83
2022/08/18 05:03:11;;;;;;;35.63;33.13;;;;;;;20.89;100.00;100641.19;5026337;28;20081;-85
2022/08/18 05:05:38;;;;;;;43.17;40.05;;;;;;;21.07;100.00;100642.47;5022280;28;20057;-82
2022/08/18 05:08:12;;;;;;;41.38;38.42;;;;;;;21.42;100.00;100639.59;5017891;28;20403;-83
2022/08/18 05:10:39;;;;;;;41.42;38.47;;;;;;;21.44;100.00;100650.09;5028253;28;20057;-83
2022/08/18 05:13:06;;;;;;;40.45;37.55;;;;;;;21.65;100.00;100637.28;5036196;28;20084;-85
2022/08/18 05:15:41;;;;;;;40.30;37.30;;;;;;;21.56;100.00;100638.97;5034527;28;20386;-83
2022/08/18 05:18:09;;;;;;;43.35;40.15;;;;;;;21.69;100.00;100638.31;5031517;28;20055;-82
2022/08/18 05:20:39;;;;;;;40.70;37.60;;;;;;;21.98;100.00;100638.34;5029553;28;20042;-82
2022/08/18 05:23:07;;;;;;;41.10;38.10;;;;;;;21.96;100.00;100641.31;5033379;28;20456;-83
2022/08/18 05:25:41;;;;;;;42.45;39.55;;;;;;;22.06;100.00;100637.75;5042422;28;20045;-83
2022/08/18 05:28:12;;;;;;;43.83;40.63;;;;;;;22.11;100.00;100640.38;5036959;28;20081;-83
2022/08/18 05:30:47;;;;;;;45.22;41.38;;;;;;;22.32;100.00;100641.03;5031401;28;20485;-86
2022/08/18 05:33:15;;;;;;;41.97;38.97;;;;;;;22.21;100.00;100650.34;5032090;28;20438;-84
2022/08/18 05:35:46;;;;;;;43.72;40.72;;;;;;;22.34;100.00;100643.47;5029143;28;20379;-83
2022/08/18 05:38:37;;;;;;;41.50;38.55;;;;;;;22.57;100.00;100648.09;5031964;28;20045;-83
2022/08/18 05:41:08;;;;;;;40.95;38.25;;;;;;;22.74;100.00;100633.28;5027501;28;20037;-83
2022/08/18 05:43:37;;;;;;;37.17;34.28;;;;;;;22.84;100.00;100639.38;5034282;28;20567;-83
2022/08/18 05:46:06;;;;;;;36.80;34.10;;;;;;;23.11;100.00;100634.47;5024209;28;20049;-82
2022/08/18 05:48:38;;;;;;;38.72;35.00;;;;;;;23.34;100.00;100632.78;5029142;28;20128;-84
2022/08/18 05:51:14;;;;;;;38.97;36.17;;;;;;;23.32;100.00;100630.38;5035752;28;20056;-85
2022/08/18 05:56:47;;;;;;;36.70;34.13;;;;;;;23.71;100.00;100651.75;5021844;28;20049;-83
2022/08/18 05:59:20;;;;;;;35.05;32.35;;;;;;;24.00;100.00;100656.19;5023005;28;20102;-85
2022/08/18 06:01:53;;;;;;;39.92;36.90;;;;;;;23.91;100.00;100652.53;5031607;28;20401;-82
2022/08/18 06:04:39;;;;;;;37.55;34.55;;;;;;;24.17;100.00;100650.19;5025858;28;20091;-82
2022/08/18 06:07:11;;;;;;;35.97;33.45;;;;;;;24.48;100.00;100644.22;5029904;28;20050;-81
2022/08/18 06:09:50;;;;;;;36.58;33.92;;;;;;;24.55;100.00;100639.22;5020578;28;20038;-84
2022/08/18 06:12:32;;;;;;;35.13;32.33;;;;;;;24.65;100.00;100650.66;5024920;28;20124;-85
2022/08/18 06:15:15;;;;;;;35.17;32.27;;;;;;;24.64;100.00;100649.06;5029921;28;20060;-83
2022/08/18 06:18:17;;;;;;;33.60;31.13;;;;;;;24.82;100.00;100652.78;5024427;28;20474;-85
2022/08/18 06:21:10;;;;;;;35.15;32.35;;;;;;;24.89;100.00;100655.09;5028018;28;20049;-82
2022/08/18 06:23:47;;;;;;;33.28;30.65;;;;;;;24.91;100.00;100645.53;5024758;28;20047;-84
2022/08/18 06:26:25;;;;;;;35.83;32.67;;;;;;;25.33;100.00;100651.72;5034199;28;20442;-82
2022/08/18 06:29:07;;;;;;;33.05;30.52;;;;;;;25.59;100.00;100662.00;5035211;28;20045;-81
2022/08/18 06:31:45;;;;;;;33.65;30.60;;;;;;;25.58;100.00;100654.94;5034961;28;20041;-80
2022/08/18 06:34:23;;;;;;;32.72;30.23;;;;;;;26.00;100.00;100666.47;5024986;28;20407;-81
2022/08/18 06:36:55;;;;;;;34.13;31.42;;;;;;;26.10;100.00;100660.78;5024881;28;20063;-81
2022/08/18 06:39:29;;;;;;;33.25;30.63;;;;;;;26.48;100.00;100663.84;5027768;28;20045;-83
2022/08/18 06:41:57;;;;;;;35.10;32.38;;;;;;;26.22;100.00;100663.72;5030725;28;20056;-83
2022/08/18 06:44:31;;;;;;;33.83;31.05;;;;;;;26.00;100.00;100661.03;5028484;28;20045;-84
2022/08/18 06:47:04;;;;;;;34.42;31.88;;;;;;;26.26;100.00;100662.00;5029693;28;20426;-81
2022/08/18 06:49:39;;;;;;;34.65;32.00;;;;;;;26.34;100.00;100665.06;5030505;28;20077;-81
2022/08/18 06:52:27;;;;;;;34.78;32.22;;;;;;;26.38;100.00;100671.47;5030754;28;20045;-82
2022/08/18 06:54:57;;;;;;;33.97;31.55;;;;;;;26.59;100.00;100669.84;5019617;28;20056;-82
2022/08/18 06:57:31;;;;;;;34.22;31.73;;;;;;;26.55;100.00;100668.88;5034080;28;20060;-85
2022/08/18 07:00:01;;;;;;;34.47;31.90;;;;;;;26.66;100.00;100663.94;5027870;28;20146;-85
2022/08/18 07:02:42;;;;;;;34.47;31.95;;;;;;;27.06;100.00;100663.88;5029966;28;20073;-82
2022/08/18 07:05:22;;;;;;;35.00;32.53;;;;;;;27.47;100.00;100663.47;5027925;28;20064;-82
2022/08/18 07:08:08;;;;;;;35.22;32.72;;;;;;;26.89;100.00;100651.81;5027973;28;20049;-84
2022/08/18 07:10:38;;;;;;;33.85;31.45;;;;;;;26.88;100.00;100658.41;5029320;28;20045;-84
2022/08/18 07:13:26;;;;;;;35.47;32.88;;;;;;;26.80;100.00;100667.34;5033685;28;20046;-81
2022/08/18 07:15:54;;;;;;;37.90;35.35;;;;;;;26.36;100.00;100668.28;5028396;28;20037;-82
2022/08/18 07:18:25;;;;;;;40.83;38.03;;;;;;;26.68;100.00;100667.94;5027900;28;20495;-87
2022/08/18 07:20:55;;;;;;;39.00;36.03;;;;;;;26.80;100.00;100666.53;5024417;28;20463;-81
2022/08/18 07:23:29;;;;;;;35.55;32.95;;;;;;;27.24;100.00;100659.28;5023804;28;20053;-81
2022/08/18 07:26:07;;;;;;;36.03;33.58;;;;;;;27.31;100.00;100654.16;5018358;28;20052;-81
2022/08/18 07:28:36;;;;;;;47.63;44.55;;;;;;;27.48;100.00;100656.09;5018753;28;20391;-82
2022/08/18 07:31:33;;;;;;;36.78;34.28;;;;;;;27.63;100.00;100650.16;5030356;28;20052;-83
2022/08/18 07:34:13;;;;;;;34.47;31.67;;;;;;;28.07;100.00;100664.53;5025442;28;20056;-81
2022/08/18 07:36:49;;;;;;;35.88;33.28;;;;;;;28.17;100.00;100663.38;5029131;28;20080;-85
2022/08/18 07:39:23;;;;;;;35.40;32.53;;;;;;;28.25;100.00;100660.63;5026363;28;20049;-81
2022/08/18 07:41:56;;;;;;;36.70;33.83;;;;;;;28.41;100.00;100662.84;5033552;28;20058;-81
2022/08/18 07:44:30;;;;;;;35.40;32.80;;;;;;;27.36;100.00;100656.75;5033538;28;20092;-83
2022/08/18 07:47:02;;;;;;;35.47;31.98;;;;;;;27.91;100.00;100663.47;5023813;28;20045;-84
2022/08/18 07:49:33;;;;;;;34.50;31.65;;;;;;;27.63;100.00;100652.88;5026780;28;20049;-82
2022/08/18 07:52:05;;;;;;;34.60;31.85;;;;;;;28.45;100.00;100664.63;5027931;28;20056;-81
2022/08/18 07:54:46;;;;;;;35.40;32.85;;;;;;;28.29;100.00;100658.03;5029104;28;20049;-83
2022/08/18 07:57:25;;;;;;;41.30;38.63;;;;;;;28.84;100.00;100657.19;5023985;28;20054;-85
2022/08/18 08:00:03;;;;;;;43.05;40.25;;;;;;;29.11;100.00;100660.56;5030992;28;20053;-85
2022/08/18 08:02:52;;;;;;;41.25;38.35;;;;;;;29.06;100.00;100652.59;5028251;28;20461;-85
2022/08/18 08:05:30;;;;;;;40.08;37.22;;;;;;;29.25;100.00;100663.06;5025026;28;20069;-82
2022/08/18 08:08:05;;;;;;;40.58;37.65;;;;;;;29.69;100.00;100644.38;5031490;28;20096;-83
2022/08/18 08:10:43;;;;;;;42.63;39.63;;;;;;;29.72;100.00;100652.72;5030100;28;20064;-84
2022/08/18 08:13:18;;;;;;;39.97;37.05;;;;;;;29.67;100.00;100645.50;5028529;28;20065;-82
2022/08/18 08:15:56;;;;;;;39.85;36.97;;;;;;;29.77;100.00;100644.28;5028224;28;20052;-80
2022/08/18 08:18:39;;;;;;;36.30;33.80;;;;;;;29.74;100.00;100647.69;5030067;28;20063;-85
2022/08/18 08:21:10;;;;;;;36.33;33.63;;;;;;;30.46;100.00;100645.47;5027222;28;20132;-84
2022/08/18 08:23:45;;;;;;;35.95;33.22;;;;;;;30.28;100.00;100642.13;5028009;28;20045;-83
2022/08/18 08:26:27;;;;;;;35.15;32.55;;;;;;;30.08;100.00;100634.78;5025860;28;20375;-84
2022/08/18 08:29:11;;;;;;;35.70;33.17;;;;;;;30.28;98.45;100636.66;5026024;28;20056;-81
2022/08/18 08:31:48;;;;;;;36.08;33.58;;;;;;;30.30;100.00;100641.81;5028341;28;20046;-82
2022/08/18 08:34:20;;;;;;;37.80;34.95;;;;;;;30.29;98.37;100645.69;5024176;28;20478;-82
2022/08/18 08:36:51;;;;;;;38.80;36.15;;;;;;;30.50;100.00;100643.66;5032932;28;20936;-82
2022/08/18 08:39:25;;;;;;;38.65;36.05;;;;;;;30.35;100.00;100644.34;5025783;28;20068;-82
2022/08/18 08:41:59;;;;;;;37.35;34.72;;;;;;;30.08;100.00;100635.59;5029791;28;20045;-82
2022/08/18 08:44:35;;;;;;;34.22;31.83;;;;;;;30.03;100.00;100640.47;5024639;28;20100;-83
2022/08/18 08:47:08;;;;;;;39.03;35.88;;;;;;;30.47;100.00;100640.78;5027914;28;20049;-84
2022/08/18 08:49:39;;;;;;;35.53;33.25;;;;;;;30.49;100.00;100635.75;5031228;28;20046;-81
2022/08/18 08:52:14;;;;;;;34.33;32.08;;;;;;;29.85;100.00;100643.41;5031059;28;20049;-82
2022/08/18 08:54:46;;;;;;;31.33;29.02;;;;;;;29.90;100.00;100634.19;5030470;28;20049;-82
2022/08/18 08:57:17;;;;;;;34.75;32.42;;;;;;;30.05;100.00;100640.94;5026665;28;20051;-81
2022/08/18 08:59:47;;;;;;;29.70;27.67;;;;;;;29.71;100.00;100639.34;5026295;28;20226;-84
2022/08/18 09:02:38;;;;;;;30.80;28.50;;;;;;;29.51;100.00;100644.50;5024916;28;20058;-84
2022/08/18 09:05:11;;;;;;;30.98;28.88;;;;;;;29.27;100.00;100647.13;5026106;28;20064;-81
2022/08/18 09:08:08;;;;;;;33.83;31.30;;;;;;;29.24;100.00;100650.53;5023054;28;20474;-82
2022/08/18 09:10:58;;;;;;;33.00;30.92;;;;;;;29.26;100.00;100654.53;5023091;28;20064;-82
2022/08/18 09:13:47;;;;;;;32.92;30.73;;;;;;;29.54;100.00;100641.09;5022074;28;20431;-83
2022/08/18 09:16:28;;;;;;;35.17;32.97;;;;;;;29.35;100.00;100646.25;5025965;28;20042;-81
2022/08/18 09:19:16;;;;;;;40.45;37.60;;;;;;;29.89;100.00;100636.09;5028450;28;20080;-82
2022/08/18 09:21:51;;;;;;;35.55;33.03;;;;;;;30.28;100.00;100641.34;5028991;28;20059;-82
2022/08/18 09:24:24;;;;;;;36.65;34.15;;;;;;;30.01;99.32;100640.81;5029612;28;20393;-83
2022/08/18 09:26:53;;;;;;;33.35;31.05;;;;;;;30.12;96.83;100643.91;5030647;28;20077;-81
2022/08/18 09:29:26;;;;;;;35.03;32.58;;;;;;;30.42;89.90;100630.84;5028472;28;20045;-82
2022/08/18 09:32:32;;;;;;;34.60;32.08;;;;;;;30.87;92.13;100629.94;5028937;28;20045;-82
2022/08/18 09:35:15;;;;;;;32.97;30.77;;;;;;;30.75;83.33;100619.78;5024416;28;20398;-84
2022/08/18 09:41:30;;;;;;;32.72;30.33;;;;;;;30.77;87.79;100622.97;5032455;28;20132;-81
2022/08/18 09:43:38;;;;;;;37.95;35.55;;;;;;;31.31;70.19;100610.06;5029215;28;20168;-82
2022/08/18 09:46:07;;;;;;;36.08;33.47;;;;;;;31.65;72.52;100612.22;5031453;28;20053;-84
2022/08/18 09:48:39;;;;;;;36.30;33.67;;;;;;;30.97;68.37;100613.00;5034868;28;20064;-85
2022/08/18 09:51:35;;;;;;;35.10;32.67;;;;;;;31.07;69.42;100603.50;5030983;28;20057;-82
2022/08/18 09:54:16;;;;;;;35.85;33.25;;;;;;;31.96;56.50;100601.66;5026905;28;20049;-82
2022/08/18 09:57:15;;;;;;;38.80;35.40;;;;;;;32.41;56.20;100601.22;5017325;28;20057;-82
2022/08/18 10:00:14;;;;;;;35.10;32.60;;;;;;;32.21;67.93;100602.28;5023018;28;20066;-83
2022/08/18 10:03:23;;;;;;;36.50;34.03;;;;;;;32.38;67.73;100590.94;5032505;28;20545;-83
2022/08/18 10:06:19;;;;;;;33.38;30.88;;;;;;;32.70;68.96;100594.41;5023565;28;20049;-82
2022/08/18 10:09:04;;;;;;;36.50;33.90;;;;;;;32.04;65.73;100592.44;5026657;28;20107;-81
2022/08/18 10:11:44;;;;;;;37.22;34.63;;;;;;;31.73;74.69;100577.50;5028011;28;20045;-82
2022/08/18 10:14:35;;;;;;;36.05;33.28;;;;;;;32.43;75.76;100576.91;5021035;28;20052;-82
2022/08/18 10:17:17;;;;;;;39.42;36.40;;;;;;;32.53;63.07;100578.31;5028041;28;20045;-81
2022/08/18 10:19:55;;;;;;;45.55;42.25;;;;;;;33.17;60.18;100582.50;5022885;28;20049;-82
2022/08/18 10:22:38;;;;;;;39.45;36.33;;;;;;;31.98;69.58;100574.63;5016509;28;20053;-83
2022/08/18 10:25:08;;;;;;;44.00;40.40;;;;;;;32.43;68.96;100570.59;5025894;28;20081;-80
2022/08/18 10:27:51;;;;;;;40.35;37.10;;;;;;;33.05;69.42;100566.91;5028158;28;20041;-81
2022/08/18 10:30:45;;;;;;;40.75;37.45;;;;;;;33.46;63.52;100572.03;5030921;28;20107;-80
2022/08/18 10:33:51;;;;;;;39.85;36.53;;;;;;;32.33;72.30;100574.72;5018042;28;20089;-81
2022/08/18 10:36:40;;;;;;;39.97;37.08;;;;;;;32.24;72.15;100563.09;5031592;28;20486;-81
2022/08/18 10:39:15;;;;;;;39.78;36.60;;;;;;;33.95;62.37;100563.88;5032305;28;20052;-80
2022/08/18 10:41:56;;;;;;;39.10;36.10;;;;;;;34.44;60.15;100551.28;5017362;28;20053;-81
2022/08/18 10:44:26;;;;;;;37.22;33.95;;;;;;;34.28;54.99;100547.88;5031064;28;20447;-82
2022/08/18 10:46:58;;;;;;;42.78;39.13;;;;;;;34.34;57.48;100544.41;5036671;28;20060;-82
2022/08/18 10:49:32;;;;;;;37.38;34.15;;;;;;;33.94;55.51;100540.25;5036770;28;20540;-84
2022/08/18 10:52:16;;;;;;;35.38;32.35;;;;;;;35.02;56.34;100539.81;5034184;28;20042;-83
2022/08/18 10:55:08;;;;;;;35.95;33.20;;;;;;;34.88;53.92;100543.19;5031852;28;20046;-83
2022/08/18 10:57:54;;;;;;;36.50;33.63;;;;;;;33.43;58.74;100536.97;5017776;28;20058;-82
2022/08/18 11:00:23;;;;;;;37.13;34.38;;;;;;;33.49;58.06;100527.25;5024460;28;20413;-82
2022/08/18 11:03:08;;;;;;;35.67;33.08;;;;;;;34.16;55.91;100537.84;5028133;28;20489;-83
2022/08/18 11:05:36;;;;;;;39.25;36.05;;;;;;;33.35;59.85;100536.06;5028855;28;20041;-83
2022/08/18 11:08:12;;;;;;;33.22;30.52;;;;;;;34.50;52.22;100532.44;5031600;28;20049;-85
2022/08/18 11:10:47;;;;;;;34.67;31.67;;;;;;;33.88;55.02;100533.44;5031988;28;20060;-82
2022/08/18 11:13:23;;;;;;;37.50;34.40;;;;;;;34.23;53.99;100529.69;5028698;28;20556;-80
2022/08/18 11:16:01;;;;;;;37.50;34.25;;;;;;;33.20;55.79;100534.19;5018124;28;20130;-81
2022/08/18 11:18:35;;;;;;;34.90;32.13;;;;;;;33.88;51.04;100522.44;5024291;28;20042;-80
2022/08/18 11:21:41;;;;;;;35.90;33.15;;;;;;;34.58;49.45;100525.88;5027210;28;20076;-82
2022/08/18 11:24:13;;;;;;;35.55;32.63;;;;;;;33.29;55.38;100515.50;5019113;28;20478;-82
2022/08/18 11:26:43;;;;;;;35.35;32.75;;;;;;;33.29;52.97;100516.28;5021514;28;20076;-81
2022/08/18 11:29:27;;;;;;;35.92;33.13;;;;;;;33.04;53.71;100513.06;5027817;28;20105;-81
2022/08/18 11:32:00;;;;;;;35.78;32.63;;;;;;;32.56;60.28;100520.69;5028673;28;20056;-83
2022/08/18 11:34:36;;;;;;;36.50;33.63;;;;;;;34.40;49.86;100504.38;5031176;28;20042;-81
2022/08/18 11:37:21;;;;;;;35.20;32.60;;;;;;;34.85;48.49;100505.34;5022149;28;20060;-82
2022/08/18 11:39:58;;;;;;;40.72;37.72;;;;;;;34.07;45.01;100507.00;5027737;28;20041;-84
2022/08/18 11:42:32;;;;;;;37.78;34.85;;;;;;;34.20;48.46;100502.91;5018515;28;20045;-82
2022/08/18 11:45:10;;;;;;;37.45;34.75;;;;;;;33.12;48.19;100488.44;5018216;28;20058;-82